sensor_id;sensor_type;location;lat;lon;timestamp;temperature;humidity
39371;DHT22;25099;51.946;4.838;2023-07-13T00:01:29;18.60;99.90
39371;DHT22;25099;51.946;4.838;2023-07-13T00:04:15;17.20;99.90
39371;DHT22;25099;51.946;4.838;2023-07-13T00:06:45;18.50;99.90
39371;DHT22;25099;51.946;4.838;2023-07-13T00:09:29;18.60;99.90
39371;DHT22;25099;51.946;4.838;2023-07-13T00:11:57;18.70;99.90
39371;DHT22;25099;51.946;4.838;2023-07-13T00:14:25;18.60;99.90
39371;DHT22;25099;51.946;4.838;2023-07-13T00:16:51;18.70;99.90
39371;DHT22;25099;51.946;4.838;2023-07-13T00:21:57;18.70;99.90
39371;DHT22;25099;51.946;4.838;2023-07-13T00:24:28;18.70;99.90
39371;DHT22;25099;51.946;4.838;2023-07-13T00:26:55;18.70;99.90
39371;DHT22;25099;51.946;4.838;2023-07-13T00:29:21;18.70;99.90
39371;DHT22;25099;51.946;4.838;2023-07-13T00:31:47;18.70;99.90
39371;DHT22;25099;51.946;4.838;2023-07-13T00:36:44;18.60;99.90
39371;DHT22;25099;51.946;4.838;2023-07-13T00:39:22;18.50;99.90
39371;DHT22;25099;51.946;4.838;2023-07-13T00:41:48;18.50;99.90
39371;DHT22;25099;51.946;4.838;2023-07-13T00:44:15;17.90;99.90
39371;DHT22;25099;51.946;4.838;2023-07-13T00:46:41;18.10;99.90
39371;DHT22;25099;51.946;4.838;2023-07-13T00:52:05;18.40;99.90
39371;DHT22;25099;51.946;4.838;2023-07-13T00:54:38;18.30;99.90
39371;DHT22;25099;51.946;4.838;2023-07-13T00:57:07;18.30;99.90
39371;DHT22;25099;51.946;4.838;2023-07-13T00:59:43;18.30;99.90
39371;DHT22;25099;51.946;4.838;2023-07-13T01:04:48;18.20;99.90
39371;DHT22;25099;51.946;4.838;2023-07-13T01:07:14;18.20;99.90
39371;DHT22;25099;51.946;4.838;2023-07-13T01:09:58;18.20;99.90
39371;DHT22;25099;51.946;4.838;2023-07-13T01:12:24;18.20;99.90
39371;DHT22;25099;51.946;4.838;2023-07-13T01:17:46;18.20;99.90
39371;DHT22;25099;51.946;4.838;2023-07-13T01:20:14;18.10;99.90
39371;DHT22;25099;51.946;4.838;2023-07-13T01:22:52;18.10;99.90
39371;DHT22;25099;51.946;4.838;2023-07-13T01:25:20;18.10;99.90
39371;DHT22;25099;51.946;4.838;2023-07-13T01:28:05;18.10;99.90
39371;DHT22;25099;51.946;4.838;2023-07-13T01:30:49;18.00;99.90
39371;DHT22;25099;51.946;4.838;2023-07-13T01:33:17;18.00;99.90
39371;DHT22;25099;51.946;4.838;2023-07-13T01:35:44;18.00;99.90
39371;DHT22;25099;51.946;4.838;2023-07-13T01:41:16;18.00;99.90
39371;DHT22;25099;51.946;4.838;2023-07-13T01:43:43;17.70;99.90
39371;DHT22;25099;51.946;4.838;2023-07-13T01:46:08;17.90;99.90
39371;DHT22;25099;51.946;4.838;2023-07-13T01:48:59;18.00;99.90
39371;DHT22;25099;51.946;4.838;2023-07-13T01:51:25;17.50;99.90
39371;DHT22;25099;51.946;4.838;2023-07-13T01:53:50;17.90;99.90
39371;DHT22;25099;51.946;4.838;2023-07-13T01:56:16;17.90;99.90
39371;DHT22;25099;51.946;4.838;2023-07-13T01:58:52;17.80;99.90
39371;DHT22;25099;51.946;4.838;2023-07-13T02:01:26;17.80;99.90
39371;DHT22;25099;51.946;4.838;2023-07-13T02:04:11;17.90;99.90
39371;DHT22;25099;51.946;4.838;2023-07-13T02:06:36;17.90;99.90
39371;DHT22;25099;51.946;4.838;2023-07-13T02:09:10;17.90;99.90
39371;DHT22;25099;51.946;4.838;2023-07-13T02:11:48;17.90;99.90
39371;DHT22;25099;51.946;4.838;2023-07-13T02:14:14;17.60;99.90
39371;DHT22;25099;51.946;4.838;2023-07-13T02:16:54;17.90;99.90
39371;DHT22;25099;51.946;4.838;2023-07-13T02:19:20;17.50;99.90
39371;DHT22;25099;51.946;4.838;2023-07-13T02:24:19;18.00;99.90
39371;DHT22;25099;51.946;4.838;2023-07-13T02:27:05;17.90;99.90
39371;DHT22;25099;51.946;4.838;2023-07-13T02:29:33;17.90;99.90
39371;DHT22;25099;51.946;4.838;2023-07-13T02:31:59;17.90;99.90
39371;DHT22;25099;51.946;4.838;2023-07-13T02:34:25;17.90;99.90
39371;DHT22;25099;51.946;4.838;2023-07-13T02:36:51;17.90;99.90
39371;DHT22;25099;51.946;4.838;2023-07-13T02:39:45;17.90;99.90
39371;DHT22;25099;51.946;4.838;2023-07-13T02:42:26;17.80;99.90
39371;DHT22;25099;51.946;4.838;2023-07-13T02:44:54;17.80;99.90
39371;DHT22;25099;51.946;4.838;2023-07-13T02:47:20;17.80;99.90
39371;DHT22;25099;51.946;4.838;2023-07-13T02:49:46;17.70;99.90
39371;DHT22;25099;51.946;4.838;2023-07-13T02:52:18;17.70;99.90
39371;DHT22;25099;51.946;4.838;2023-07-13T02:54:43;17.40;99.90
39371;DHT22;25099;51.946;4.838;2023-07-13T02:57:24;17.70;99.90
39371;DHT22;25099;51.946;4.838;2023-07-13T03:00:03;17.70;99.90
39371;DHT22;25099;51.946;4.838;2023-07-13T03:02:38;17.70;99.90
39371;DHT22;25099;51.946;4.838;2023-07-13T03:05:19;17.60;99.90
39371;DHT22;25099;51.946;4.838;2023-07-13T03:10:22;17.60;99.90
39371;DHT22;25099;51.946;4.838;2023-07-13T03:12:48;17.60;99.90
39371;DHT22;25099;51.946;4.838;2023-07-13T03:15:24;17.50;99.90
39371;DHT22;25099;51.946;4.838;2023-07-13T03:17:53;17.50;99.90
39371;DHT22;25099;51.946;4.838;2023-07-13T03:20:19;17.40;99.90
39371;DHT22;25099;51.946;4.838;2023-07-13T03:22:46;17.90;99.90
39371;DHT22;25099;51.946;4.838;2023-07-13T03:28:28;17.50;99.90
39371;DHT22;25099;51.946;4.838;2023-07-13T03:37:39;17.30;99.90
39371;DHT22;25099;51.946;4.838;2023-07-13T04:20:14;17.00;99.90
39371;DHT22;25099;51.946;4.838;2023-07-13T04:22:43;17.00;99.90
39371;DHT22;25099;51.946;4.838;2023-07-13T04:25:09;17.40;99.90
39371;DHT22;25099;51.946;4.838;2023-07-13T04:27:36;17.40;99.90
39371;DHT22;25099;51.946;4.838;2023-07-13T04:30:02;17.40;99.90
39371;DHT22;25099;51.946;4.838;2023-07-13T04:32:28;17.30;99.90
39371;DHT22;25099;51.946;4.838;2023-07-13T04:35:09;17.30;99.90
39371;DHT22;25099;51.946;4.838;2023-07-13T04:37:37;17.30;99.90
39371;DHT22;25099;51.946;4.838;2023-07-13T04:40:03;17.40;99.90
39371;DHT22;25099;51.946;4.838;2023-07-13T04:42:29;17.40;99.90
39371;DHT22;25099;51.946;4.838;2023-07-13T04:45:15;17.40;99.90
39371;DHT22;25099;51.946;4.838;2023-07-13T04:47:44;17.40;99.90
39371;DHT22;25099;51.946;4.838;2023-07-13T04:50:13;17.30;99.90
39371;DHT22;25099;51.946;4.838;2023-07-13T04:52:58;17.40;99.90
39371;DHT22;25099;51.946;4.838;2023-07-13T04:55:24;17.40;99.90
39371;DHT22;25099;51.946;4.838;2023-07-13T04:57:50;17.40;99.90
39371;DHT22;25099;51.946;4.838;2023-07-13T05:00:16;17.50;99.90
39371;DHT22;25099;51.946;4.838;2023-07-13T05:02:44;17.50;99.90
39371;DHT22;25099;51.946;4.838;2023-07-13T05:05:20;17.50;99.90
39371;DHT22;25099;51.946;4.838;2023-07-13T05:07:51;17.50;99.90
39371;DHT22;25099;51.946;4.838;2023-07-13T05:10:17;17.60;99.90
39371;DHT22;25099;51.946;4.838;2023-07-13T05:12:43;17.60;99.90
39371;DHT22;25099;51.946;4.838;2023-07-13T05:15:09;17.60;99.90
39371;DHT22;25099;51.946;4.838;2023-07-13T05:17:35;17.60;99.90
39371;DHT22;25099;51.946;4.838;2023-07-13T05:20:13;17.60;99.90
39371;DHT22;25099;51.946;4.838;2023-07-13T05:22:42;17.70;99.90
39371;DHT22;25099;51.946;4.838;2023-07-13T05:25:08;17.70;99.90
39371;DHT22;25099;51.946;4.838;2023-07-13T05:27:35;17.70;99.90
39371;DHT22;25099;51.946;4.838;2023-07-13T05:30:02;17.70;99.90
39371;DHT22;25099;51.946;4.838;2023-07-13T05:32:28;17.70;99.90
39371;DHT22;25099;51.946;4.838;2023-07-13T05:34:54;17.80;99.90
39371;DHT22;25099;51.946;4.838;2023-07-13T05:37:31;17.80;99.90
39371;DHT22;25099;51.946;4.838;2023-07-13T05:39:57;17.90;99.90
39371;DHT22;25099;51.946;4.838;2023-07-13T05:44:56;18.00;99.90
39371;DHT22;25099;51.946;4.838;2023-07-13T05:47:22;18.00;99.90
39371;DHT22;25099;51.946;4.838;2023-07-13T05:49:47;17.90;99.90
39371;DHT22;25099;51.946;4.838;2023-07-13T05:52:13;17.90;99.90
39371;DHT22;25099;51.946;4.838;2023-07-13T05:54:51;17.90;99.90
39371;DHT22;25099;51.946;4.838;2023-07-13T05:57:24;18.00;99.90
39371;DHT22;25099;51.946;4.838;2023-07-13T05:59:49;17.90;99.90
39371;DHT22;25099;51.946;4.838;2023-07-13T06:02:18;18.00;99.90
39371;DHT22;25099;51.946;4.838;2023-07-13T06:04:44;17.90;99.90
39371;DHT22;25099;51.946;4.838;2023-07-13T06:07:09;18.00;99.90
39371;DHT22;25099;51.946;4.838;2023-07-13T06:09:35;18.00;99.90
39371;DHT22;25099;51.946;4.838;2023-07-13T06:12:01;18.00;99.90
39371;DHT22;25099;51.946;4.838;2023-07-13T06:14:26;18.00;99.90
39371;DHT22;25099;51.946;4.838;2023-07-13T06:16:52;18.10;99.90
39371;DHT22;25099;51.946;4.838;2023-07-13T06:19:21;18.10;99.90
39371;DHT22;25099;51.946;4.838;2023-07-13T06:22:00;18.20;99.90
39371;DHT22;25099;51.946;4.838;2023-07-13T06:24:26;18.30;99.90
39371;DHT22;25099;51.946;4.838;2023-07-13T06:26:52;18.30;99.90
39371;DHT22;25099;51.946;4.838;2023-07-13T06:29:26;18.30;99.90
39371;DHT22;25099;51.946;4.838;2023-07-13T06:31:51;18.10;99.90
39371;DHT22;25099;51.946;4.838;2023-07-13T06:34:17;18.20;99.90
39371;DHT22;25099;51.946;4.838;2023-07-13T06:36:52;18.20;99.90
39371;DHT22;25099;51.946;4.838;2023-07-13T06:39:18;18.10;99.90
39371;DHT22;25099;51.946;4.838;2023-07-13T06:41:44;18.20;99.90
39371;DHT22;25099;51.946;4.838;2023-07-13T06:44:12;18.10;99.90
39371;DHT22;25099;51.946;4.838;2023-07-13T06:46:44;18.10;99.90
39371;DHT22;25099;51.946;4.838;2023-07-13T06:49:16;18.10;99.90
39371;DHT22;25099;51.946;4.838;2023-07-13T06:51:42;18.10;99.90
39371;DHT22;25099;51.946;4.838;2023-07-13T06:54:07;18.10;99.90
39371;DHT22;25099;51.946;4.838;2023-07-13T06:56:33;18.10;99.90
39371;DHT22;25099;51.946;4.838;2023-07-13T06:59:05;18.10;99.90
39371;DHT22;25099;51.946;4.838;2023-07-13T07:01:31;18.10;99.90
39371;DHT22;25099;51.946;4.838;2023-07-13T07:03:57;18.10;99.90
39371;DHT22;25099;51.946;4.838;2023-07-13T07:06:23;18.10;99.90
39371;DHT22;25099;51.946;4.838;2023-07-13T07:08:49;18.10;99.90
39371;DHT22;25099;51.946;4.838;2023-07-13T07:11:25;18.10;99.90
39371;DHT22;25099;51.946;4.838;2023-07-13T07:13:52;18.10;99.90
39371;DHT22;25099;51.946;4.838;2023-07-13T07:16:27;18.10;99.90
39371;DHT22;25099;51.946;4.838;2023-07-13T07:18:58;18.10;99.90
39371;DHT22;25099;51.946;4.838;2023-07-13T07:21:33;18.10;99.90
39371;DHT22;25099;51.946;4.838;2023-07-13T07:24:07;18.00;99.90
39371;DHT22;25099;51.946;4.838;2023-07-13T07:26:34;18.10;99.90
39371;DHT22;25099;51.946;4.838;2023-07-13T07:29:05;18.10;99.90
39371;DHT22;25099;51.946;4.838;2023-07-13T07:31:34;18.10;99.90
39371;DHT22;25099;51.946;4.838;2023-07-13T07:34:00;18.00;99.90
39371;DHT22;25099;51.946;4.838;2023-07-13T07:36:35;17.90;99.90
39371;DHT22;25099;51.946;4.838;2023-07-13T07:39:06;17.70;99.90
39371;DHT22;25099;51.946;4.838;2023-07-13T07:41:52;17.70;99.90
39371;DHT22;25099;51.946;4.838;2023-07-13T07:44:18;17.50;99.90
39371;DHT22;25099;51.946;4.838;2023-07-13T07:46:44;17.50;99.90
39371;DHT22;25099;51.946;4.838;2023-07-13T07:49:09;17.50;99.90
39371;DHT22;25099;51.946;4.838;2023-07-13T07:51:36;17.40;99.90
39371;DHT22;25099;51.946;4.838;2023-07-13T07:54:14;17.20;99.90
39371;DHT22;25099;51.946;4.838;2023-07-13T07:56:42;17.20;99.90
39371;DHT22;25099;51.946;4.838;2023-07-13T07:59:08;17.20;99.90
39371;DHT22;25099;51.946;4.838;2023-07-13T08:01:34;17.30;99.90
39371;DHT22;25099;51.946;4.838;2023-07-13T08:03:59;17.40;99.90
39371;DHT22;25099;51.946;4.838;2023-07-13T08:06:25;17.20;99.90
39371;DHT22;25099;51.946;4.838;2023-07-13T08:08:51;17.10;99.90
39371;DHT22;25099;51.946;4.838;2023-07-13T08:11:35;17.20;99.90
39371;DHT22;25099;51.946;4.838;2023-07-13T08:14:20;17.20;99.90
39371;DHT22;25099;51.946;4.838;2023-07-13T08:16:55;17.30;99.90
39371;DHT22;25099;51.946;4.838;2023-07-13T08:19:27;17.40;99.90
39371;DHT22;25099;51.946;4.838;2023-07-13T08:27:48;17.80;99.90
39371;DHT22;25099;51.946;4.838;2023-07-13T08:30:14;17.90;99.90
39371;DHT22;25099;51.946;4.838;2023-07-13T08:32:53;17.90;99.90
39371;DHT22;25099;51.946;4.838;2023-07-13T08:35:19;18.00;99.90
39371;DHT22;25099;51.946;4.838;2023-07-13T08:37:44;18.00;99.90
39371;DHT22;25099;51.946;4.838;2023-07-13T08:40:11;17.90;99.90
39371;DHT22;25099;51.946;4.838;2023-07-13T08:42:45;17.90;99.90
39371;DHT22;25099;51.946;4.838;2023-07-13T08:45:46;18.00;99.90
39371;DHT22;25099;51.946;4.838;2023-07-13T08:48:19;18.00;99.90
39371;DHT22;25099;51.946;4.838;2023-07-13T08:50:57;17.90;99.90
39371;DHT22;25099;51.946;4.838;2023-07-13T08:53:24;17.90;99.90
39371;DHT22;25099;51.946;4.838;2023-07-13T08:55:57;17.90;99.90
39371;DHT22;25099;51.946;4.838;2023-07-13T08:58:24;18.00;99.90
39371;DHT22;25099;51.946;4.838;2023-07-13T09:04:11;18.20;99.90
39371;DHT22;25099;51.946;4.838;2023-07-13T09:07:00;18.30;99.90
39371;DHT22;25099;51.946;4.838;2023-07-13T09:15:32;18.40;99.90
39371;DHT22;25099;51.946;4.838;2023-07-13T09:23:17;18.20;99.90
39371;DHT22;25099;51.946;4.838;2023-07-13T09:25:47;18.20;99.90
39371;DHT22;25099;51.946;4.838;2023-07-13T09:28:24;18.20;99.90
39371;DHT22;25099;51.946;4.838;2023-07-13T09:33:38;18.30;99.90
39371;DHT22;25099;51.946;4.838;2023-07-13T09:36:30;18.40;99.90
39371;DHT22;25099;51.946;4.838;2023-07-13T09:39:28;18.40;99.90
39371;DHT22;25099;51.946;4.838;2023-07-13T09:44:42;18.40;99.90
39371;DHT22;25099;51.946;4.838;2023-07-13T09:47:23;18.30;99.90
39371;DHT22;25099;51.946;4.838;2023-07-13T09:49:55;18.20;99.90
39371;DHT22;25099;51.946;4.838;2023-07-13T09:52:21;18.10;99.90
39371;DHT22;25099;51.946;4.838;2023-07-13T09:55:11;18.10;99.90
39371;DHT22;25099;51.946;4.838;2023-07-13T11:06:33;19.20;99.90
39371;DHT22;25099;51.946;4.838;2023-07-13T11:15:45;19.90;99.90
39371;DHT22;25099;51.946;4.838;2023-07-13T11:18:31;19.80;99.90
39371;DHT22;25099;51.946;4.838;2023-07-13T11:31:36;19.80;99.90
39371;DHT22;25099;51.946;4.838;2023-07-13T11:45:43;20.00;99.90
39371;DHT22;25099;51.946;4.838;2023-07-13T11:48:30;20.20;99.90
39371;DHT22;25099;51.946;4.838;2023-07-13T11:51:41;20.10;99.90
39371;DHT22;25099;51.946;4.838;2023-07-13T11:57:27;20.10;99.90
39371;DHT22;25099;51.946;4.838;2023-07-13T12:03:02;19.80;99.90
39371;DHT22;25099;51.946;4.838;2023-07-13T12:38:00;20.10;99.90
39371;DHT22;25099;51.946;4.838;2023-07-13T12:49:55;20.40;99.90
39371;DHT22;25099;51.946;4.838;2023-07-13T12:54:55;20.40;99.90
39371;DHT22;25099;51.946;4.838;2023-07-13T13:01:09;20.80;99.90
39371;DHT22;25099;51.946;4.838;2023-07-13T13:03:51;20.50;99.90
39371;DHT22;25099;51.946;4.838;2023-07-13T13:57:06;21.10;99.90
39371;DHT22;25099;51.946;4.838;2023-07-13T14:05:03;21.10;99.90
39371;DHT22;25099;51.946;4.838;2023-07-13T14:07:45;21.20;99.90
39371;DHT22;25099;51.946;4.838;2023-07-13T14:10:13;21.30;99.90
39371;DHT22;25099;51.946;4.838;2023-07-13T14:12:56;21.40;99.90
39371;DHT22;25099;51.946;4.838;2023-07-13T14:15:27;21.40;99.90
39371;DHT22;25099;51.946;4.838;2023-07-13T14:17:54;21.50;99.90
39371;DHT22;25099;51.946;4.838;2023-07-13T14:20:23;21.40;99.90
39371;DHT22;25099;51.946;4.838;2023-07-13T14:23:19;21.20;99.90
39371;DHT22;25099;51.946;4.838;2023-07-13T14:26:00;21.50;99.90
39371;DHT22;25099;51.946;4.838;2023-07-13T14:28:26;21.50;99.90
39371;DHT22;25099;51.946;4.838;2023-07-13T14:30:53;21.60;99.70
39371;DHT22;25099;51.946;4.838;2023-07-13T14:33:34;21.70;99.90
39371;DHT22;25099;51.946;4.838;2023-07-13T14:36:00;21.70;99.90
39371;DHT22;25099;51.946;4.838;2023-07-13T14:38:32;21.80;99.90
39371;DHT22;25099;51.946;4.838;2023-07-13T14:41:03;21.80;99.30
39371;DHT22;25099;51.946;4.838;2023-07-13T14:43:48;21.80;99.80
39371;DHT22;25099;51.946;4.838;2023-07-13T14:46:36;21.70;99.50
39371;DHT22;25099;51.946;4.838;2023-07-13T14:49:06;21.40;99.60
39371;DHT22;25099;51.946;4.838;2023-07-13T14:51:32;21.50;99.40
39371;DHT22;25099;51.946;4.838;2023-07-13T14:54:17;21.60;99.80
39371;DHT22;25099;51.946;4.838;2023-07-13T14:59:08;21.80;99.90
39371;DHT22;25099;51.946;4.838;2023-07-13T15:01:50;21.80;99.80
39371;DHT22;25099;51.946;4.838;2023-07-13T15:04:16;21.90;99.90
39371;DHT22;25099;51.946;4.838;2023-07-13T15:07:01;22.00;99.90
39371;DHT22;25099;51.946;4.838;2023-07-13T15:12:18;22.00;99.70
39371;DHT22;25099;51.946;4.838;2023-07-13T15:14:45;22.00;99.40
39371;DHT22;25099;51.946;4.838;2023-07-13T15:17:32;22.00;99.20
39371;DHT22;25099;51.946;4.838;2023-07-13T15:23:13;22.20;99.90
39371;DHT22;25099;51.946;4.838;2023-07-13T15:28:14;22.40;99.30
39371;DHT22;25099;51.946;4.838;2023-07-13T15:30:45;22.40;99.20
39371;DHT22;25099;51.946;4.838;2023-07-13T15:33:28;22.50;99.50
39371;DHT22;25099;51.946;4.838;2023-07-13T15:35:55;22.60;99.60
39371;DHT22;25099;51.946;4.838;2023-07-13T15:38:31;22.70;99.50
39371;DHT22;25099;51.946;4.838;2023-07-13T15:43:26;22.80;99.20
39371;DHT22;25099;51.946;4.838;2023-07-13T15:48:38;23.00;99.70
39371;DHT22;25099;51.946;4.838;2023-07-13T15:53:34;23.00;99.10
39371;DHT22;25099;51.946;4.838;2023-07-13T15:56:24;22.80;99.50
39371;DHT22;25099;51.946;4.838;2023-07-13T15:59:11;22.80;99.90
39371;DHT22;25099;51.946;4.838;2023-07-13T16:01:58;23.20;99.90
39371;DHT22;25099;51.946;4.838;2023-07-13T16:04:32;23.20;98.60
39371;DHT22;25099;51.946;4.838;2023-07-13T16:06:58;23.50;98.40
39371;DHT22;25099;51.946;4.838;2023-07-13T16:09:32;23.60;98.80
39371;DHT22;25099;51.946;4.838;2023-07-13T16:11:58;23.50;98.80
39371;DHT22;25099;51.946;4.838;2023-07-13T16:14:38;23.90;99.10
39371;DHT22;25099;51.946;4.838;2023-07-13T16:19:30;24.00;98.60
39371;DHT22;25099;51.946;4.838;2023-07-13T16:24:52;23.80;98.20
39371;DHT22;25099;51.946;4.838;2023-07-13T16:27:30;22.80;98.00
39371;DHT22;25099;51.946;4.838;2023-07-13T16:32:30;23.60;98.20
39371;DHT22;25099;51.946;4.838;2023-07-13T16:34:56;23.70;98.90
39371;DHT22;25099;51.946;4.838;2023-07-13T16:37:28;23.60;98.40
39371;DHT22;25099;51.946;4.838;2023-07-13T16:42:46;22.90;99.20
39371;DHT22;25099;51.946;4.838;2023-07-13T16:45:12;22.60;99.30
39371;DHT22;25099;51.946;4.838;2023-07-13T16:47:54;22.40;99.90
39371;DHT22;25099;51.946;4.838;2023-07-13T16:50:23;22.30;99.90
39371;DHT22;25099;51.946;4.838;2023-07-13T16:53:36;22.30;99.90
39371;DHT22;25099;51.946;4.838;2023-07-13T16:56:02;22.30;99.90
39371;DHT22;25099;51.946;4.838;2023-07-13T16:58:39;22.30;99.90
39371;DHT22;25099;51.946;4.838;2023-07-13T17:01:22;22.30;99.90
39371;DHT22;25099;51.946;4.838;2023-07-13T17:04:08;22.10;99.90
39371;DHT22;25099;51.946;4.838;2023-07-13T17:06:44;22.10;99.90
39371;DHT22;25099;51.946;4.838;2023-07-13T17:09:34;22.40;99.90
39371;DHT22;25099;51.946;4.838;2023-07-13T17:12:00;22.90;99.90
39371;DHT22;25099;51.946;4.838;2023-07-13T17:14:43;22.80;99.90
39371;DHT22;25099;51.946;4.838;2023-07-13T17:17:28;23.00;99.90
39371;DHT22;25099;51.946;4.838;2023-07-13T17:20:17;23.20;99.90
39371;DHT22;25099;51.946;4.838;2023-07-13T17:22:43;23.20;99.20
39371;DHT22;25099;51.946;4.838;2023-07-13T17:25:13;23.20;98.70
39371;DHT22;25099;51.946;4.838;2023-07-13T17:27:58;23.10;98.70
39371;DHT22;25099;51.946;4.838;2023-07-13T18:26:14;22.30;99.90
39371;DHT22;25099;51.946;4.838;2023-07-13T18:28:42;22.10;99.90
39371;DHT22;25099;51.946;4.838;2023-07-13T18:31:16;22.20;99.90
39371;DHT22;25099;51.946;4.838;2023-07-13T18:34:15;22.10;99.90
39371;DHT22;25099;51.946;4.838;2023-07-13T18:36:43;22.10;99.90
39371;DHT22;25099;51.946;4.838;2023-07-13T18:39:14;21.70;99.90
39371;DHT22;25099;51.946;4.838;2023-07-13T18:41:41;22.10;99.90
39371;DHT22;25099;51.946;4.838;2023-07-13T18:44:24;22.20;99.90
39371;DHT22;25099;51.946;4.838;2023-07-13T18:49:28;22.30;99.90
39371;DHT22;25099;51.946;4.838;2023-07-13T19:08:04;21.20;99.90
39371;DHT22;25099;51.946;4.838;2023-07-13T19:10:38;21.40;99.90
39371;DHT22;25099;51.946;4.838;2023-07-13T19:23:42;20.70;99.90
39371;DHT22;25099;51.946;4.838;2023-07-13T19:26:22;20.70;99.90
39371;DHT22;25099;51.946;4.838;2023-07-13T19:31:24;20.70;99.90
39371;DHT22;25099;51.946;4.838;2023-07-13T19:33:58;20.40;99.90
39371;DHT22;25099;51.946;4.838;2023-07-13T19:36:30;20.50;99.90
39371;DHT22;25099;51.946;4.838;2023-07-13T19:38:56;20.40;99.90
39371;DHT22;25099;51.946;4.838;2023-07-13T19:41:24;20.40;99.90
39371;DHT22;25099;51.946;4.838;2023-07-13T19:43:51;20.50;99.90
39371;DHT22;25099;51.946;4.838;2023-07-13T19:46:38;20.50;99.90
39371;DHT22;25099;51.946;4.838;2023-07-13T19:49:23;20.50;99.90
39371;DHT22;25099;51.946;4.838;2023-07-13T19:51:50;20.00;99.90
39371;DHT22;25099;51.946;4.838;2023-07-13T19:54:15;20.50;99.90
39371;DHT22;25099;51.946;4.838;2023-07-13T19:56:57;20.60;99.90
39371;DHT22;25099;51.946;4.838;2023-07-13T19:59:33;20.50;99.90
39371;DHT22;25099;51.946;4.838;2023-07-13T20:42:33;20.50;99.90
39371;DHT22;25099;51.946;4.838;2023-07-13T20:54:59;20.50;99.90
39371;DHT22;25099;51.946;4.838;2023-07-13T21:26:33;19.70;99.90
39371;DHT22;25099;51.946;4.838;2023-07-13T21:29:24;19.80;99.90
39371;DHT22;25099;51.946;4.838;2023-07-13T21:32:18;19.80;99.90
39371;DHT22;25099;51.946;4.838;2023-07-13T21:38:51;19.70;99.90
39371;DHT22;25099;51.946;4.838;2023-07-13T21:45:22;19.80;99.90
39371;DHT22;25099;51.946;4.838;2023-07-13T21:47:49;19.80;99.90
39371;DHT22;25099;51.946;4.838;2023-07-13T21:50:18;19.80;99.90
39371;DHT22;25099;51.946;4.838;2023-07-13T21:52:45;19.80;99.90
39371;DHT22;25099;51.946;4.838;2023-07-13T21:55:19;19.80;99.90
39371;DHT22;25099;51.946;4.838;2023-07-13T21:58:08;19.70;99.90
39371;DHT22;25099;51.946;4.838;2023-07-13T22:00:37;19.70;99.90
39371;DHT22;25099;51.946;4.838;2023-07-13T22:05:54;19.70;99.90
39371;DHT22;25099;51.946;4.838;2023-07-13T22:08:41;19.60;99.90
39371;DHT22;25099;51.946;4.838;2023-07-13T22:11:13;19.50;99.90
39371;DHT22;25099;51.946;4.838;2023-07-13T22:13:53;19.50;99.90
39371;DHT22;25099;51.946;4.838;2023-07-13T22:16:29;19.40;99.90
39371;DHT22;25099;51.946;4.838;2023-07-13T22:19:15;19.30;99.90
39371;DHT22;25099;51.946;4.838;2023-07-13T22:21:42;19.30;99.90
39371;DHT22;25099;51.946;4.838;2023-07-13T22:24:18;19.30;99.90
39371;DHT22;25099;51.946;4.838;2023-07-13T22:26:56;18.90;99.90
39371;DHT22;25099;51.946;4.838;2023-07-13T22:29:25;19.30;99.90
39371;DHT22;25099;51.946;4.838;2023-07-13T22:31:53;19.30;99.90
39371;DHT22;25099;51.946;4.838;2023-07-13T22:34:21;19.00;99.90
39371;DHT22;25099;51.946;4.838;2023-07-13T22:36:47;19.20;99.90
39371;DHT22;25099;51.946;4.838;2023-07-13T22:39:19;19.20;99.90
39371;DHT22;25099;51.946;4.838;2023-07-13T22:41:55;19.20;99.90
39371;DHT22;25099;51.946;4.838;2023-07-13T22:44:29;19.00;99.90
39371;DHT22;25099;51.946;4.838;2023-07-13T22:50:31;19.10;99.90
39371;DHT22;25099;51.946;4.838;2023-07-13T22:53:08;19.20;99.90
39371;DHT22;25099;51.946;4.838;2023-07-13T22:55:34;19.20;99.90
39371;DHT22;25099;51.946;4.838;2023-07-13T22:58:00;19.20;99.90
39371;DHT22;25099;51.946;4.838;2023-07-13T23:00:28;19.20;99.90
39371;DHT22;25099;51.946;4.838;2023-07-13T23:03:15;19.20;99.90
39371;DHT22;25099;51.946;4.838;2023-07-13T23:05:47;19.10;99.90
39371;DHT22;25099;51.946;4.838;2023-07-13T23:08:25;19.30;99.90
39371;DHT22;25099;51.946;4.838;2023-07-13T23:10:50;19.10;99.90
39371;DHT22;25099;51.946;4.838;2023-07-13T23:13:19;19.10;99.90
39371;DHT22;25099;51.946;4.838;2023-07-13T23:15:57;19.10;99.90
39371;DHT22;25099;51.946;4.838;2023-07-13T23:18:23;19.10;99.90
39371;DHT22;25099;51.946;4.838;2023-07-13T23:20:57;19.10;99.90
39371;DHT22;25099;51.946;4.838;2023-07-13T23:23:23;19.00;99.90
39371;DHT22;25099;51.946;4.838;2023-07-13T23:25:58;19.00;99.90
39371;DHT22;25099;51.946;4.838;2023-07-13T23:31:15;19.00;99.90
39371;DHT22;25099;51.946;4.838;2023-07-13T23:33:41;19.00;99.90
39371;DHT22;25099;51.946;4.838;2023-07-13T23:36:15;19.00;99.90
39371;DHT22;25099;51.946;4.838;2023-07-13T23:38:41;19.00;99.90
39371;DHT22;25099;51.946;4.838;2023-07-13T23:41:12;19.00;99.90
39371;DHT22;25099;51.946;4.838;2023-07-13T23:43:38;19.00;99.90
39371;DHT22;25099;51.946;4.838;2023-07-13T23:49:25;18.60;99.90
39371;DHT22;25099;51.946;4.838;2023-07-13T23:52:12;18.60;99.90
39371;DHT22;25099;51.946;4.838;2023-07-13T23:54:38;18.90;99.90
39371;DHT22;25099;51.946;4.838;2023-07-13T23:57:04;19.00;99.90
39371;DHT22;25099;51.946;4.838;2023-07-13T23:59:30;18.90;99.90
